sensor_id;sensor_type;location;lat;lon;timestamp;P1;durP1;ratioP1;P2;durP2;ratioP2
44658;SDS011;30378;50.186;8.644;2022-07-22T00:00:05;7.95;;;4.10;;
44658;SDS011;30378;50.186;8.644;2022-07-22T00:02:35;6.72;;;3.70;;
44658;SDS011;30378;50.186;8.644;2022-07-22T00:05:02;8.93;;;4.50;;
44658;SDS011;30378;50.186;8.644;2022-07-22T00:07:29;7.68;;;4.07;;
44658;SDS011;30378;50.186;8.644;2022-07-22T00:09:56;6.45;;;3.67;;
44658;SDS011;30378;50.186;8.644;2022-07-22T00:12:23;8.63;;;3.63;;
44658;SDS011;30378;50.186;8.644;2022-07-22T00:14:50;6.97;;;3.15;;
44658;SDS011;30378;50.186;8.644;2022-07-22T00:17:17;6.65;;;3.33;;
44658;SDS011;30378;50.186;8.644;2022-07-22T00:19:44;7.43;;;3.50;;
44658;SDS011;30378;50.186;8.644;2022-07-22T00:22:11;6.93;;;3.45;;
44658;SDS011;30378;50.186;8.644;2022-07-22T00:24:38;9.38;;;3.33;;
44658;SDS011;30378;50.186;8.644;2022-07-22T00:27:05;5.90;;;3.15;;
44658;SDS011;30378;50.186;8.644;2022-07-22T00:29:32;7.30;;;3.03;;
44658;SDS011;30378;50.186;8.644;2022-07-22T00:32:00;6.13;;;2.83;;
44658;SDS011;30378;50.186;8.644;2022-07-22T00:34:26;5.75;;;2.95;;
44658;SDS011;30378;50.186;8.644;2022-07-22T00:36:54;5.05;;;2.58;;
44658;SDS011;30378;50.186;8.644;2022-07-22T00:39:20;7.30;;;3.08;;
44658;SDS011;30378;50.186;8.644;2022-07-22T00:41:48;5.03;;;3.05;;
44658;SDS011;30378;50.186;8.644;2022-07-22T00:44:16;5.10;;;2.42;;
44658;SDS011;30378;50.186;8.644;2022-07-22T00:46:43;6.22;;;2.90;;
44658;SDS011;30378;50.186;8.644;2022-07-22T00:49:10;5.22;;;2.65;;
44658;SDS011;30378;50.186;8.644;2022-07-22T00:51:37;5.63;;;2.83;;
44658;SDS011;30378;50.186;8.644;2022-07-22T00:54:06;7.00;;;3.28;;
44658;SDS011;30378;50.186;8.644;2022-07-22T00:56:33;5.68;;;2.90;;
44658;SDS011;30378;50.186;8.644;2022-07-22T00:59:01;9.85;;;3.20;;
44658;SDS011;30378;50.186;8.644;2022-07-22T01:01:30;5.55;;;2.80;;
44658;SDS011;30378;50.186;8.644;2022-07-22T01:03:58;5.07;;;2.90;;
44658;SDS011;30378;50.186;8.644;2022-07-22T01:06:27;7.15;;;2.42;;
44658;SDS011;30378;50.186;8.644;2022-07-22T01:08:55;7.20;;;3.47;;
44658;SDS011;30378;50.186;8.644;2022-07-22T01:11:24;4.72;;;2.65;;
44658;SDS011;30378;50.186;8.644;2022-07-22T01:13:52;6.30;;;3.10;;
44658;SDS011;30378;50.186;8.644;2022-07-22T01:16:20;5.22;;;3.05;;
44658;SDS011;30378;50.186;8.644;2022-07-22T01:18:48;7.15;;;3.53;;
44658;SDS011;30378;50.186;8.644;2022-07-22T01:21:15;5.20;;;2.90;;
44658;SDS011;30378;50.186;8.644;2022-07-22T01:23:44;6.32;;;2.85;;
44658;SDS011;30378;50.186;8.644;2022-07-22T01:26:11;5.47;;;2.20;;
44658;SDS011;30378;50.186;8.644;2022-07-22T01:28:39;7.07;;;2.42;;
44658;SDS011;30378;50.186;8.644;2022-07-22T01:31:07;6.15;;;2.70;;
44658;SDS011;30378;50.186;8.644;2022-07-22T01:33:34;6.82;;;3.15;;
44658;SDS011;30378;50.186;8.644;2022-07-22T01:36:03;8.30;;;3.50;;
44658;SDS011;30378;50.186;8.644;2022-07-22T01:38:30;6.50;;;3.28;;
44658;SDS011;30378;50.186;8.644;2022-07-22T01:40:58;7.30;;;2.90;;
44658;SDS011;30378;50.186;8.644;2022-07-22T01:43:26;6.50;;;3.30;;
44658;SDS011;30378;50.186;8.644;2022-07-22T01:45:54;6.28;;;3.33;;
44658;SDS011;30378;50.186;8.644;2022-07-22T01:48:21;7.05;;;4.13;;
44658;SDS011;30378;50.186;8.644;2022-07-22T01:50:49;9.50;;;3.10;;
44658;SDS011;30378;50.186;8.644;2022-07-22T01:53:17;6.22;;;3.55;;
44658;SDS011;30378;50.186;8.644;2022-07-22T01:55:46;6.05;;;3.22;;
44658;SDS011;30378;50.186;8.644;2022-07-22T01:58:15;6.32;;;3.35;;
44658;SDS011;30378;50.186;8.644;2022-07-22T02:00:42;11.38;;;3.45;;
44658;SDS011;30378;50.186;8.644;2022-07-22T02:03:10;5.10;;;2.95;;
44658;SDS011;30378;50.186;8.644;2022-07-22T02:05:37;6.43;;;3.33;;
44658;SDS011;30378;50.186;8.644;2022-07-22T02:08:16;8.25;;;3.67;;
44658;SDS011;30378;50.186;8.644;2022-07-22T02:11:03;7.82;;;3.25;;
44658;SDS011;30378;50.186;8.644;2022-07-22T02:13:31;7.85;;;3.40;;
44658;SDS011;30378;50.186;8.644;2022-07-22T02:15:58;5.93;;;3.95;;
44658;SDS011;30378;50.186;8.644;2022-07-22T02:18:25;7.85;;;3.30;;
44658;SDS011;30378;50.186;8.644;2022-07-22T02:20:53;6.47;;;3.70;;
44658;SDS011;30378;50.186;8.644;2022-07-22T02:23:20;8.05;;;3.55;;
44658;SDS011;30378;50.186;8.644;2022-07-22T02:25:47;6.72;;;3.40;;
44658;SDS011;30378;50.186;8.644;2022-07-22T02:28:16;5.25;;;2.85;;
44658;SDS011;30378;50.186;8.644;2022-07-22T02:30:43;7.68;;;3.45;;
44658;SDS011;30378;50.186;8.644;2022-07-22T02:33:11;8.90;;;3.45;;
44658;SDS011;30378;50.186;8.644;2022-07-22T02:35:39;7.63;;;3.20;;
44658;SDS011;30378;50.186;8.644;2022-07-22T02:38:07;7.15;;;3.63;;
44658;SDS011;30378;50.186;8.644;2022-07-22T02:40:35;7.75;;;3.85;;
44658;SDS011;30378;50.186;8.644;2022-07-22T02:43:03;9.82;;;4.15;;
44658;SDS011;30378;50.186;8.644;2022-07-22T02:45:33;8.20;;;3.90;;
44658;SDS011;30378;50.186;8.644;2022-07-22T02:48:00;5.80;;;3.30;;
44658;SDS011;30378;50.186;8.644;2022-07-22T02:50:29;6.75;;;4.00;;
44658;SDS011;30378;50.186;8.644;2022-07-22T02:52:56;7.53;;;4.10;;
44658;SDS011;30378;50.186;8.644;2022-07-22T02:55:26;9.00;;;4.72;;
44658;SDS011;30378;50.186;8.644;2022-07-22T02:57:55;7.68;;;3.75;;
44658;SDS011;30378;50.186;8.644;2022-07-22T03:00:22;8.10;;;4.57;;
44658;SDS011;30378;50.186;8.644;2022-07-22T03:02:50;8.10;;;4.32;;
44658;SDS011;30378;50.186;8.644;2022-07-22T03:05:17;7.72;;;4.00;;
44658;SDS011;30378;50.186;8.644;2022-07-22T03:07:51;7.10;;;3.90;;
44658;SDS011;30378;50.186;8.644;2022-07-22T03:10:19;8.43;;;4.35;;
44658;SDS011;30378;50.186;8.644;2022-07-22T03:12:48;7.15;;;3.53;;
44658;SDS011;30378;50.186;8.644;2022-07-22T03:15:16;6.30;;;3.70;;
44658;SDS011;30378;50.186;8.644;2022-07-22T03:17:43;8.60;;;3.95;;
44658;SDS011;30378;50.186;8.644;2022-07-22T03:20:10;8.77;;;4.30;;
44658;SDS011;30378;50.186;8.644;2022-07-22T03:22:38;8.68;;;4.68;;
44658;SDS011;30378;50.186;8.644;2022-07-22T03:25:05;9.48;;;4.90;;
44658;SDS011;30378;50.186;8.644;2022-07-22T03:27:32;9.13;;;4.25;;
44658;SDS011;30378;50.186;8.644;2022-07-22T03:30:00;7.55;;;4.45;;
44658;SDS011;30378;50.186;8.644;2022-07-22T03:32:29;9.60;;;5.30;;
44658;SDS011;30378;50.186;8.644;2022-07-22T03:34:56;10.38;;;4.50;;
44658;SDS011;30378;50.186;8.644;2022-07-22T03:39:56;8.32;;;4.45;;
44658;SDS011;30378;50.186;8.644;2022-07-22T03:42:24;11.18;;;5.07;;
44658;SDS011;30378;50.186;8.644;2022-07-22T03:44:51;9.18;;;4.60;;
44658;SDS011;30378;50.186;8.644;2022-07-22T03:47:19;9.10;;;5.25;;
44658;SDS011;30378;50.186;8.644;2022-07-22T03:49:47;9.98;;;5.13;;
44658;SDS011;30378;50.186;8.644;2022-07-22T03:52:19;9.98;;;5.15;;
44658;SDS011;30378;50.186;8.644;2022-07-22T03:54:46;11.13;;;4.93;;
44658;SDS011;30378;50.186;8.644;2022-07-22T03:57:13;8.93;;;4.82;;
44658;SDS011;30378;50.186;8.644;2022-07-22T03:59:41;9.98;;;4.88;;
44658;SDS011;30378;50.186;8.644;2022-07-22T04:02:08;10.25;;;5.32;;
44658;SDS011;30378;50.186;8.644;2022-07-22T04:04:35;12.38;;;5.93;;
44658;SDS011;30378;50.186;8.644;2022-07-22T04:07:02;13.20;;;6.00;;
44658;SDS011;30378;50.186;8.644;2022-07-22T04:09:34;8.60;;;5.25;;
44658;SDS011;30378;50.186;8.644;2022-07-22T04:12:02;10.35;;;5.97;;
44658;SDS011;30378;50.186;8.644;2022-07-22T04:14:35;9.40;;;5.50;;
44658;SDS011;30378;50.186;8.644;2022-07-22T04:17:02;10.40;;;5.57;;
44658;SDS011;30378;50.186;8.644;2022-07-22T04:19:29;9.55;;;5.30;;
44658;SDS011;30378;50.186;8.644;2022-07-22T04:21:58;14.32;;;5.70;;
44658;SDS011;30378;50.186;8.644;2022-07-22T04:24:28;10.63;;;5.53;;
44658;SDS011;30378;50.186;8.644;2022-07-22T04:26:56;12.23;;;5.70;;
44658;SDS011;30378;50.186;8.644;2022-07-22T04:29:23;11.68;;;5.82;;
44658;SDS011;30378;50.186;8.644;2022-07-22T04:31:51;13.93;;;5.70;;
44658;SDS011;30378;50.186;8.644;2022-07-22T04:34:19;10.35;;;5.25;;
44658;SDS011;30378;50.186;8.644;2022-07-22T04:36:48;15.60;;;5.45;;
44658;SDS011;30378;50.186;8.644;2022-07-22T04:39:16;10.88;;;5.25;;
44658;SDS011;30378;50.186;8.644;2022-07-22T04:41:52;11.88;;;5.68;;
44658;SDS011;30378;50.186;8.644;2022-07-22T04:44:20;8.75;;;4.85;;
44658;SDS011;30378;50.186;8.644;2022-07-22T04:46:48;10.20;;;5.03;;
44658;SDS011;30378;50.186;8.644;2022-07-22T04:49:16;10.68;;;5.38;;
44658;SDS011;30378;50.186;8.644;2022-07-22T04:51:43;10.00;;;5.13;;
44658;SDS011;30378;50.186;8.644;2022-07-22T04:54:16;8.93;;;4.78;;
44658;SDS011;30378;50.186;8.644;2022-07-22T04:56:44;10.60;;;5.22;;
44658;SDS011;30378;50.186;8.644;2022-07-22T04:59:11;11.55;;;4.93;;
44658;SDS011;30378;50.186;8.644;2022-07-22T05:01:39;9.75;;;5.35;;
44658;SDS011;30378;50.186;8.644;2022-07-22T05:04:07;10.68;;;5.45;;
44658;SDS011;30378;50.186;8.644;2022-07-22T05:06:37;10.45;;;5.18;;
44658;SDS011;30378;50.186;8.644;2022-07-22T05:09:04;9.90;;;5.35;;
44658;SDS011;30378;50.186;8.644;2022-07-22T05:11:31;8.73;;;4.80;;
44658;SDS011;30378;50.186;8.644;2022-07-22T05:13:59;11.65;;;5.65;;
44658;SDS011;30378;50.186;8.644;2022-07-22T05:16:26;9.68;;;5.45;;
44658;SDS011;30378;50.186;8.644;2022-07-22T05:18:53;10.75;;;5.35;;
44658;SDS011;30378;50.186;8.644;2022-07-22T05:21:20;9.00;;;4.80;;
44658;SDS011;30378;50.186;8.644;2022-07-22T05:23:47;9.55;;;5.70;;
44658;SDS011;30378;50.186;8.644;2022-07-22T05:26:16;9.32;;;4.63;;
44658;SDS011;30378;50.186;8.644;2022-07-22T05:28:43;8.15;;;4.68;;
44658;SDS011;30378;50.186;8.644;2022-07-22T05:31:10;8.85;;;4.90;;
44658;SDS011;30378;50.186;8.644;2022-07-22T05:33:38;7.28;;;4.70;;
44658;SDS011;30378;50.186;8.644;2022-07-22T05:36:13;12.32;;;5.25;;
44658;SDS011;30378;50.186;8.644;2022-07-22T05:41:12;11.93;;;5.50;;
44658;SDS011;30378;50.186;8.644;2022-07-22T05:43:39;10.43;;;5.32;;
44658;SDS011;30378;50.186;8.644;2022-07-22T05:46:08;7.75;;;4.45;;
44658;SDS011;30378;50.186;8.644;2022-07-22T05:48:35;8.75;;;4.60;;
44658;SDS011;30378;50.186;8.644;2022-07-22T05:51:02;7.07;;;4.47;;
44658;SDS011;30378;50.186;8.644;2022-07-22T05:53:31;5.88;;;4.15;;
44658;SDS011;30378;50.186;8.644;2022-07-22T05:55:58;8.23;;;4.22;;
44658;SDS011;30378;50.186;8.644;2022-07-22T05:58:30;7.20;;;3.92;;
44658;SDS011;30378;50.186;8.644;2022-07-22T06:00:58;6.53;;;3.53;;
44658;SDS011;30378;50.186;8.644;2022-07-22T06:03:25;5.53;;;3.75;;
44658;SDS011;30378;50.186;8.644;2022-07-22T06:05:52;6.53;;;3.42;;
44658;SDS011;30378;50.186;8.644;2022-07-22T06:08:19;4.90;;;2.90;;
44658;SDS011;30378;50.186;8.644;2022-07-22T06:10:49;6.07;;;2.95;;
44658;SDS011;30378;50.186;8.644;2022-07-22T06:13:17;4.03;;;3.08;;
44658;SDS011;30378;50.186;8.644;2022-07-22T06:15:45;4.75;;;3.10;;
44658;SDS011;30378;50.186;8.644;2022-07-22T06:18:12;3.88;;;2.25;;
44658;SDS011;30378;50.186;8.644;2022-07-22T06:20:40;3.50;;;2.00;;
44658;SDS011;30378;50.186;8.644;2022-07-22T06:23:07;3.15;;;2.10;;
44658;SDS011;30378;50.186;8.644;2022-07-22T06:25:35;3.60;;;2.22;;
44658;SDS011;30378;50.186;8.644;2022-07-22T06:28:09;2.90;;;2.10;;
44658;SDS011;30378;50.186;8.644;2022-07-22T06:30:37;3.50;;;2.58;;
44658;SDS011;30378;50.186;8.644;2022-07-22T06:33:05;3.05;;;2.30;;
44658;SDS011;30378;50.186;8.644;2022-07-22T06:35:32;3.03;;;1.85;;
44658;SDS011;30378;50.186;8.644;2022-07-22T06:38:00;4.28;;;2.50;;
44658;SDS011;30378;50.186;8.644;2022-07-22T06:40:34;3.30;;;1.83;;
44658;SDS011;30378;50.186;8.644;2022-07-22T06:43:21;3.20;;;2.03;;
44658;SDS011;30378;50.186;8.644;2022-07-22T06:46:07;4.20;;;2.80;;
44658;SDS011;30378;50.186;8.644;2022-07-22T06:48:50;4.38;;;2.70;;
44658;SDS011;30378;50.186;8.644;2022-07-22T06:51:16;4.30;;;2.95;;
44658;SDS011;30378;50.186;8.644;2022-07-22T06:53:44;4.20;;;3.10;;
44658;SDS011;30378;50.186;8.644;2022-07-22T06:56:11;4.22;;;2.88;;
44658;SDS011;30378;50.186;8.644;2022-07-22T06:58:41;4.05;;;2.78;;
44658;SDS011;30378;50.186;8.644;2022-07-22T07:01:09;4.03;;;3.17;;
44658;SDS011;30378;50.186;8.644;2022-07-22T07:03:57;3.97;;;2.85;;
44658;SDS011;30378;50.186;8.644;2022-07-22T07:06:24;4.82;;;2.90;;
44658;SDS011;30378;50.186;8.644;2022-07-22T07:09:11;4.32;;;2.60;;
44658;SDS011;30378;50.186;8.644;2022-07-22T07:11:40;3.67;;;2.38;;
44658;SDS011;30378;50.186;8.644;2022-07-22T07:14:15;4.10;;;2.65;;
44658;SDS011;30378;50.186;8.644;2022-07-22T07:16:43;3.83;;;2.60;;
44658;SDS011;30378;50.186;8.644;2022-07-22T07:19:10;4.20;;;2.50;;
44658;SDS011;30378;50.186;8.644;2022-07-22T07:21:38;5.82;;;2.63;;
44658;SDS011;30378;50.186;8.644;2022-07-22T07:24:05;4.65;;;2.85;;
44658;SDS011;30378;50.186;8.644;2022-07-22T07:26:33;4.60;;;2.63;;
44658;SDS011;30378;50.186;8.644;2022-07-22T07:29:00;2.92;;;2.38;;
44658;SDS011;30378;50.186;8.644;2022-07-22T07:31:31;3.92;;;2.65;;
44658;SDS011;30378;50.186;8.644;2022-07-22T07:34:01;3.53;;;2.30;;
44658;SDS011;30378;50.186;8.644;2022-07-22T07:36:28;2.95;;;2.22;;
44658;SDS011;30378;50.186;8.644;2022-07-22T07:38:56;3.97;;;2.70;;
44658;SDS011;30378;50.186;8.644;2022-07-22T07:41:23;4.32;;;2.78;;
44658;SDS011;30378;50.186;8.644;2022-07-22T07:43:51;3.75;;;2.58;;
44658;SDS011;30378;50.186;8.644;2022-07-22T07:46:19;4.60;;;2.63;;
44658;SDS011;30378;50.186;8.644;2022-07-22T07:48:46;5.00;;;2.95;;
44658;SDS011;30378;50.186;8.644;2022-07-22T07:51:15;4.32;;;2.97;;
44658;SDS011;30378;50.186;8.644;2022-07-22T07:53:42;4.38;;;2.65;;
44658;SDS011;30378;50.186;8.644;2022-07-22T07:56:09;5.07;;;2.90;;
44658;SDS011;30378;50.186;8.644;2022-07-22T07:58:36;4.55;;;2.55;;
44658;SDS011;30378;50.186;8.644;2022-07-22T08:01:04;5.07;;;3.30;;
44658;SDS011;30378;50.186;8.644;2022-07-22T08:03:33;5.57;;;3.05;;
44658;SDS011;30378;50.186;8.644;2022-07-22T08:06:01;4.95;;;3.08;;
44658;SDS011;30378;50.186;8.644;2022-07-22T08:08:29;4.60;;;3.03;;
44658;SDS011;30378;50.186;8.644;2022-07-22T08:11:01;4.75;;;3.00;;
44658;SDS011;30378;50.186;8.644;2022-07-22T08:13:28;5.10;;;3.05;;
44658;SDS011;30378;50.186;8.644;2022-07-22T08:16:14;7.35;;;3.28;;
44658;SDS011;30378;50.186;8.644;2022-07-22T08:18:42;5.30;;;3.17;;
44658;SDS011;30378;50.186;8.644;2022-07-22T08:21:10;4.43;;;2.85;;
44658;SDS011;30378;50.186;8.644;2022-07-22T08:24:08;5.07;;;2.58;;
44658;SDS011;30378;50.186;8.644;2022-07-22T08:26:36;4.65;;;2.92;;
44658;SDS011;30378;50.186;8.644;2022-07-22T08:29:04;4.53;;;3.55;;
44658;SDS011;30378;50.186;8.644;2022-07-22T08:31:32;6.18;;;3.03;;
44658;SDS011;30378;50.186;8.644;2022-07-22T08:34:05;6.75;;;3.00;;
44658;SDS011;30378;50.186;8.644;2022-07-22T08:36:32;4.72;;;2.70;;
44658;SDS011;30378;50.186;8.644;2022-07-22T08:38:59;4.13;;;2.83;;
44658;SDS011;30378;50.186;8.644;2022-07-22T08:41:27;5.40;;;3.10;;
44658;SDS011;30378;50.186;8.644;2022-07-22T08:44:00;4.53;;;3.05;;
44658;SDS011;30378;50.186;8.644;2022-07-22T08:46:28;5.22;;;2.95;;
44658;SDS011;30378;50.186;8.644;2022-07-22T08:49:15;3.55;;;2.80;;
44658;SDS011;30378;50.186;8.644;2022-07-22T08:52:13;4.72;;;3.35;;
44658;SDS011;30378;50.186;8.644;2022-07-22T08:54:47;5.35;;;3.33;;
44658;SDS011;30378;50.186;8.644;2022-07-22T08:57:17;4.50;;;2.88;;
44658;SDS011;30378;50.186;8.644;2022-07-22T08:59:55;4.57;;;2.80;;
44658;SDS011;30378;50.186;8.644;2022-07-22T09:02:24;4.47;;;2.72;;
44658;SDS011;30378;50.186;8.644;2022-07-22T09:04:53;3.60;;;2.58;;
44658;SDS011;30378;50.186;8.644;2022-07-22T09:07:28;4.47;;;2.88;;
44658;SDS011;30378;50.186;8.644;2022-07-22T09:10:08;4.25;;;2.88;;
44658;SDS011;30378;50.186;8.644;2022-07-22T09:12:57;4.32;;;3.03;;
44658;SDS011;30378;50.186;8.644;2022-07-22T09:15:49;4.72;;;3.22;;
44658;SDS011;30378;50.186;8.644;2022-07-22T09:21:31;4.95;;;3.05;;
44658;SDS011;30378;50.186;8.644;2022-07-22T09:24:25;5.60;;;3.13;;
44658;SDS011;30378;50.186;8.644;2022-07-22T09:27:24;5.82;;;2.83;;
44658;SDS011;30378;50.186;8.644;2022-07-22T09:30:15;7.43;;;3.55;;
44658;SDS011;30378;50.186;8.644;2022-07-22T09:32:51;4.88;;;3.42;;
44658;SDS011;30378;50.186;8.644;2022-07-22T09:35:38;4.22;;;2.75;;
44658;SDS011;30378;50.186;8.644;2022-07-22T09:38:09;4.05;;;2.90;;
44658;SDS011;30378;50.186;8.644;2022-07-22T09:40:39;4.80;;;2.80;;
44658;SDS011;30378;50.186;8.644;2022-07-22T09:43:12;5.75;;;2.80;;
44658;SDS011;30378;50.186;8.644;2022-07-22T09:45:55;4.82;;;3.13;;
44658;SDS011;30378;50.186;8.644;2022-07-22T09:48:42;4.65;;;3.10;;
44658;SDS011;30378;50.186;8.644;2022-07-22T09:51:16;4.75;;;3.30;;
44658;SDS011;30378;50.186;8.644;2022-07-22T09:54:08;4.63;;;3.22;;
44658;SDS011;30378;50.186;8.644;2022-07-22T09:56:36;5.43;;;2.78;;
44658;SDS011;30378;50.186;8.644;2022-07-22T09:59:05;6.47;;;2.92;;
44658;SDS011;30378;50.186;8.644;2022-07-22T10:01:50;5.55;;;3.33;;
44658;SDS011;30378;50.186;8.644;2022-07-22T10:06:50;4.57;;;3.08;;
44658;SDS011;30378;50.186;8.644;2022-07-22T10:09:23;5.30;;;3.17;;
44658;SDS011;30378;50.186;8.644;2022-07-22T10:11:51;6.00;;;3.15;;
44658;SDS011;30378;50.186;8.644;2022-07-22T10:14:22;6.03;;;2.42;;
44658;SDS011;30378;50.186;8.644;2022-07-22T10:16:55;5.97;;;3.42;;
44658;SDS011;30378;50.186;8.644;2022-07-22T10:19:24;5.05;;;2.88;;
44658;SDS011;30378;50.186;8.644;2022-07-22T10:21:52;4.82;;;2.70;;
44658;SDS011;30378;50.186;8.644;2022-07-22T10:24:19;5.38;;;3.00;;
44658;SDS011;30378;50.186;8.644;2022-07-22T10:26:58;6.68;;;3.13;;
44658;SDS011;30378;50.186;8.644;2022-07-22T10:34:44;5.10;;;2.97;;
44658;SDS011;30378;50.186;8.644;2022-07-22T10:45:28;4.65;;;2.60;;
44658;SDS011;30378;50.186;8.644;2022-07-22T10:47:58;5.05;;;2.90;;
44658;SDS011;30378;50.186;8.644;2022-07-22T10:53:05;4.90;;;3.15;;
44658;SDS011;30378;50.186;8.644;2022-07-22T10:55:33;5.43;;;3.05;;
44658;SDS011;30378;50.186;8.644;2022-07-22T10:58:27;5.20;;;2.50;;
44658;SDS011;30378;50.186;8.644;2022-07-22T11:00:59;4.90;;;3.15;;
44658;SDS011;30378;50.186;8.644;2022-07-22T11:03:29;5.50;;;2.67;;
44658;SDS011;30378;50.186;8.644;2022-07-22T11:06:12;5.45;;;2.90;;
44658;SDS011;30378;50.186;8.644;2022-07-22T11:08:48;5.32;;;3.03;;
44658;SDS011;30378;50.186;8.644;2022-07-22T11:11:36;6.03;;;2.70;;
44658;SDS011;30378;50.186;8.644;2022-07-22T11:14:43;4.72;;;3.10;;
44658;SDS011;30378;50.186;8.644;2022-07-22T11:17:07;6.32;;;2.60;;
44658;SDS011;30378;50.186;8.644;2022-07-22T11:19:35;4.32;;;2.80;;
44658;SDS011;30378;50.186;8.644;2022-07-22T11:22:07;3.53;;;2.78;;
44658;SDS011;30378;50.186;8.644;2022-07-22T11:24:36;6.03;;;3.10;;
44658;SDS011;30378;50.186;8.644;2022-07-22T11:27:04;5.30;;;3.22;;
44658;SDS011;30378;50.186;8.644;2022-07-22T11:29:37;5.28;;;2.88;;
44658;SDS011;30378;50.186;8.644;2022-07-22T11:32:07;3.67;;;2.80;;
44658;SDS011;30378;50.186;8.644;2022-07-22T11:34:37;5.75;;;3.47;;
44658;SDS011;30378;50.186;8.644;2022-07-22T11:37:05;4.47;;;3.38;;
44658;SDS011;30378;50.186;8.644;2022-07-22T11:39:32;4.45;;;3.05;;
44658;SDS011;30378;50.186;8.644;2022-07-22T11:41:59;5.15;;;3.22;;
44658;SDS011;30378;50.186;8.644;2022-07-22T11:44:28;5.45;;;3.53;;
44658;SDS011;30378;50.186;8.644;2022-07-22T11:46:57;5.40;;;3.80;;
44658;SDS011;30378;50.186;8.644;2022-07-22T11:49:28;4.93;;;3.03;;
44658;SDS011;30378;50.186;8.644;2022-07-22T11:51:57;5.07;;;3.45;;
44658;SDS011;30378;50.186;8.644;2022-07-22T11:54:24;7.93;;;3.28;;
44658;SDS011;30378;50.186;8.644;2022-07-22T11:56:51;6.40;;;3.17;;
44658;SDS011;30378;50.186;8.644;2022-07-22T11:59:22;4.82;;;3.05;;
44658;SDS011;30378;50.186;8.644;2022-07-22T12:01:49;7.97;;;3.50;;
44658;SDS011;30378;50.186;8.644;2022-07-22T12:04:18;5.28;;;3.25;;
44658;SDS011;30378;50.186;8.644;2022-07-22T12:06:50;4.80;;;3.47;;
44658;SDS011;30378;50.186;8.644;2022-07-22T12:09:21;5.45;;;2.97;;
44658;SDS011;30378;50.186;8.644;2022-07-22T12:11:51;4.93;;;3.03;;
44658;SDS011;30378;50.186;8.644;2022-07-22T12:14:22;4.63;;;3.17;;
44658;SDS011;30378;50.186;8.644;2022-07-22T12:16:55;4.38;;;2.95;;
44658;SDS011;30378;50.186;8.644;2022-07-22T12:19:34;4.75;;;3.25;;
44658;SDS011;30378;50.186;8.644;2022-07-22T12:22:07;5.80;;;3.58;;
44658;SDS011;30378;50.186;8.644;2022-07-22T12:24:37;5.95;;;3.58;;
44658;SDS011;30378;50.186;8.644;2022-07-22T12:27:07;5.32;;;3.55;;
44658;SDS011;30378;50.186;8.644;2022-07-22T12:32:15;5.32;;;3.45;;
44658;SDS011;30378;50.186;8.644;2022-07-22T12:34:54;5.03;;;3.88;;
44658;SDS011;30378;50.186;8.644;2022-07-22T12:37:27;5.88;;;3.40;;
44658;SDS011;30378;50.186;8.644;2022-07-22T12:47:49;6.95;;;3.70;;
44658;SDS011;30378;50.186;8.644;2022-07-22T12:50:43;7.43;;;4.03;;
44658;SDS011;30378;50.186;8.644;2022-07-22T12:53:20;8.20;;;3.78;;
44658;SDS011;30378;50.186;8.644;2022-07-22T12:55:51;6.32;;;3.50;;
44658;SDS011;30378;50.186;8.644;2022-07-22T12:58:19;7.88;;;3.85;;
44658;SDS011;30378;50.186;8.644;2022-07-22T13:00:47;6.95;;;3.63;;
44658;SDS011;30378;50.186;8.644;2022-07-22T13:03:18;7.60;;;3.88;;
44658;SDS011;30378;50.186;8.644;2022-07-22T13:05:47;5.13;;;3.47;;
44658;SDS011;30378;50.186;8.644;2022-07-22T13:08:15;4.68;;;3.33;;
44658;SDS011;30378;50.186;8.644;2022-07-22T13:10:43;5.82;;;3.53;;
44658;SDS011;30378;50.186;8.644;2022-07-22T13:13:11;5.25;;;4.00;;
44658;SDS011;30378;50.186;8.644;2022-07-22T13:15:38;5.43;;;3.72;;
44658;SDS011;30378;50.186;8.644;2022-07-22T13:18:05;6.43;;;3.70;;
44658;SDS011;30378;50.186;8.644;2022-07-22T13:20:32;4.90;;;3.38;;
44658;SDS011;30378;50.186;8.644;2022-07-22T13:23:00;7.15;;;3.88;;
44658;SDS011;30378;50.186;8.644;2022-07-22T13:25:27;7.00;;;3.80;;
44658;SDS011;30378;50.186;8.644;2022-07-22T13:27:54;5.53;;;3.30;;
44658;SDS011;30378;50.186;8.644;2022-07-22T13:30:22;6.30;;;3.78;;
44658;SDS011;30378;50.186;8.644;2022-07-22T13:32:49;7.78;;;3.85;;
44658;SDS011;30378;50.186;8.644;2022-07-22T13:35:16;5.40;;;3.75;;
44658;SDS011;30378;50.186;8.644;2022-07-22T13:37:44;6.00;;;4.28;;
44658;SDS011;30378;50.186;8.644;2022-07-22T13:40:12;7.00;;;4.88;;
44658;SDS011;30378;50.186;8.644;2022-07-22T13:42:39;6.10;;;4.20;;
44658;SDS011;30378;50.186;8.644;2022-07-22T13:45:06;6.28;;;3.85;;
44658;SDS011;30378;50.186;8.644;2022-07-22T13:47:36;7.18;;;4.43;;
44658;SDS011;30378;50.186;8.644;2022-07-22T13:50:05;5.88;;;3.90;;
44658;SDS011;30378;50.186;8.644;2022-07-22T13:52:33;6.88;;;4.05;;
44658;SDS011;30378;50.186;8.644;2022-07-22T13:55:01;6.85;;;3.95;;
44658;SDS011;30378;50.186;8.644;2022-07-22T13:57:28;6.97;;;4.35;;
44658;SDS011;30378;50.186;8.644;2022-07-22T13:59:55;8.60;;;4.10;;
44658;SDS011;30378;50.186;8.644;2022-07-22T14:02:22;7.97;;;4.15;;
44658;SDS011;30378;50.186;8.644;2022-07-22T14:04:50;5.70;;;3.60;;
44658;SDS011;30378;50.186;8.644;2022-07-22T14:07:17;7.07;;;3.78;;
44658;SDS011;30378;50.186;8.644;2022-07-22T14:09:44;7.85;;;4.43;;
44658;SDS011;30378;50.186;8.644;2022-07-22T14:12:11;5.82;;;4.00;;
44658;SDS011;30378;50.186;8.644;2022-07-22T14:14:39;6.55;;;4.30;;
44658;SDS011;30378;50.186;8.644;2022-07-22T14:17:06;5.32;;;3.35;;
44658;SDS011;30378;50.186;8.644;2022-07-22T14:19:33;5.60;;;4.15;;
44658;SDS011;30378;50.186;8.644;2022-07-22T14:22:00;7.50;;;4.30;;
44658;SDS011;30378;50.186;8.644;2022-07-22T14:24:27;6.82;;;3.53;;
44658;SDS011;30378;50.186;8.644;2022-07-22T14:26:54;5.97;;;4.72;;
44658;SDS011;30378;50.186;8.644;2022-07-22T14:29:21;7.47;;;4.32;;
44658;SDS011;30378;50.186;8.644;2022-07-22T14:31:49;10.35;;;4.53;;
44658;SDS011;30378;50.186;8.644;2022-07-22T14:34:16;8.00;;;4.18;;
44658;SDS011;30378;50.186;8.644;2022-07-22T14:36:44;6.05;;;4.18;;
44658;SDS011;30378;50.186;8.644;2022-07-22T14:39:11;6.93;;;4.15;;
44658;SDS011;30378;50.186;8.644;2022-07-22T14:41:38;5.88;;;4.10;;
44658;SDS011;30378;50.186;8.644;2022-07-22T14:44:05;6.72;;;3.97;;
44658;SDS011;30378;50.186;8.644;2022-07-22T14:46:32;7.45;;;4.55;;
44658;SDS011;30378;50.186;8.644;2022-07-22T14:48:59;5.97;;;3.88;;
44658;SDS011;30378;50.186;8.644;2022-07-22T14:51:26;8.20;;;4.10;;
44658;SDS011;30378;50.186;8.644;2022-07-22T14:53:53;7.10;;;3.72;;
44658;SDS011;30378;50.186;8.644;2022-07-22T14:56:20;8.48;;;4.18;;
44658;SDS011;30378;50.186;8.644;2022-07-22T14:58:47;7.60;;;4.13;;
44658;SDS011;30378;50.186;8.644;2022-07-22T15:01:14;6.35;;;3.72;;
44658;SDS011;30378;50.186;8.644;2022-07-22T15:03:41;7.00;;;4.15;;
44658;SDS011;30378;50.186;8.644;2022-07-22T15:06:09;7.07;;;4.20;;
44658;SDS011;30378;50.186;8.644;2022-07-22T15:08:36;6.22;;;3.60;;
44658;SDS011;30378;50.186;8.644;2022-07-22T15:11:03;6.05;;;4.15;;
44658;SDS011;30378;50.186;8.644;2022-07-22T15:13:31;6.22;;;3.70;;
44658;SDS011;30378;50.186;8.644;2022-07-22T15:15:58;6.35;;;4.07;;
44658;SDS011;30378;50.186;8.644;2022-07-22T15:18:25;5.55;;;3.80;;
44658;SDS011;30378;50.186;8.644;2022-07-22T15:20:53;5.65;;;4.20;;
44658;SDS011;30378;50.186;8.644;2022-07-22T15:23:23;7.15;;;3.90;;
44658;SDS011;30378;50.186;8.644;2022-07-22T15:26:01;6.72;;;3.72;;
44658;SDS011;30378;50.186;8.644;2022-07-22T15:28:29;9.45;;;4.13;;
44658;SDS011;30378;50.186;8.644;2022-07-22T15:30:58;6.97;;;4.25;;
44658;SDS011;30378;50.186;8.644;2022-07-22T15:33:25;7.45;;;4.22;;
44658;SDS011;30378;50.186;8.644;2022-07-22T15:36:02;6.50;;;4.22;;
44658;SDS011;30378;50.186;8.644;2022-07-22T15:38:30;6.15;;;3.72;;